Time;durP1;ratioP1;P1;durP2;ratioP2;P2;SDS_P1;SDS_P2;PMS_P1;PMS_P2;Temp;Humidity;BMP_temperature;BMP_pressure;BME280_temperature;BME280_humidity;BME280_pressure;Samples;Min_cycle;Max_cycle;Signal;HPM_P1;HPM_P2
2021/10/25 00:01:02;;;;;;;4.1;2;;;;;;;3.73;86.03809;943.8352;;;;
2021/10/25 00:03:26;;;;;;;4;2.2;;;;;;;3.59;86.5498;943.895;;;;
2021/10/25 00:05:53;;;;;;;3;1.9;;;;;;;3.65;86.45996;943.8024;;;;
2021/10/25 00:08:18;;;;;;;2.5;1.8;;;;;;;3.43;87.53711;943.9233;;;;
2021/10/25 00:10:45;;;;;;;3.3;2.1;;;;;;;3.52;87.46582;943.8988;;;;
2021/10/25 00:13:09;;;;;;;2.3;1.9;;;;;;;3.58;86.95117;943.8156;;;;
2021/10/25 00:15:36;;;;;;;3.3;2.1;;;;;;;3.7;86.36816;943.8762;;;;
2021/10/25 00:18:01;;;;;;;4.5;1.9;;;;;;;3.58;87.1084;943.855;;;;
2021/10/25 00:20:26;;;;;;;2.6;1.7;;;;;;;3.57;87.09473;943.7436;;;;
2021/10/25 00:22:51;;;;;;;2.1;1.6;;;;;;;3.6;86.83301;943.8233;;;;
2021/10/25 00:25:16;;;;;;;2.4;1.8;;;;;;;3.45;87.71094;943.8644;;;;
2021/10/25 00:27:41;;;;;;;4.2;1.9;;;;;;;3.49;88.02344;943.8615;;;;
2021/10/25 00:30:08;;;;;;;3.4;1.8;;;;;;;3.59;87.27832;943.7791;;;;
2021/10/25 00:32:33;;;;;;;2.8;1.8;;;;;;;3.55;87.125;943.8709;;;;
2021/10/25 00:35:00;;;;;;;3.7;1.9;;;;;;;3.61;87.10254;943.8639;;;;
2021/10/25 00:37:25;;;;;;;3.3;2.1;;;;;;;3.56;86.94531;943.8289;;;;
2021/10/25 00:39:50;;;;;;;2.9;1.9;;;;;;;3.55;87.39453;943.853;;;;
2021/10/25 00:42:16;;;;;;;2.8;1.9;;;;;;;3.59;87.26758;943.9105;;;;
2021/10/25 00:44:42;;;;;;;2.6;1.7;;;;;;;3.73;86.73535;943.832;;;;
2021/10/25 00:47:07;;;;;;;3.2;2.1;;;;;;;3.69;86.37793;943.8995;;;;
2021/10/25 00:49:34;;;;;;;3.2;2.2;;;;;;;3.68;86.61133;943.8642;;;;
2021/10/25 00:51:59;;;;;;;4;2.3;;;;;;;3.72;86.14746;943.8433;;;;
2021/10/25 00:54:24;;;;;;;3.5;2;;;;;;;3.7;86.44727;943.8928;;;;
2021/10/25 00:56:50;;;;;;;7.5;2.4;;;;;;;3.7;86.5498;943.8513;;;;
2021/10/25 00:59:15;;;;;;;3.1;1.8;;;;;;;3.83;85.96875;943.8649;;;;
2021/10/25 01:01:40;;;;;;;3.2;1.8;;;;;;;3.9;85.31934;943.7673;;;;
2021/10/25 01:04:05;;;;;;;2.1;1.7;;;;;;;3.86;85.34473;943.7629;;;;
2021/10/25 01:06:30;;;;;;;2.1;1.9;;;;;;;3.92;85.04199;943.7689;;;;
2021/10/25 01:08:57;;;;;;;2.7;2;;;;;;;3.85;85.37598;943.7902;;;;
2021/10/25 01:11:22;;;;;;;2.2;1.6;;;;;;;3.85;85.55664;943.8013;;;;
2021/10/25 01:13:49;;;;;;;2.7;1.5;;;;;;;3.67;86.2168;943.7355;;;;
2021/10/25 01:16:23;;;;;;;2.1;1.4;;;;;;;3.56;86.8916;943.6749;;;;
2021/10/25 01:18:49;;;;;;;1.6;1.4;;;;;;;3.69;86.70117;943.7198;;;;
2021/10/25 01:21:13;;;;;;;2.6;1.6;;;;;;;3.84;85.83594;943.7254;;;;
2021/10/25 01:24:17;;;;;;;2.2;1.6;;;;;;;3.94;85.16797;943.6886;;;;
2021/10/25 01:26:44;;;;;;;2.8;1.7;;;;;;;3.86;85.34473;943.6387;;;;
2021/10/25 01:29:09;;;;;;;1.8;1.6;;;;;;;3.75;85.77246;943.6817;;;;
2021/10/25 01:31:37;;;;;;;2.4;1.6;;;;;;;3.69;86.31055;943.6295;;;;
2021/10/25 01:34:02;;;;;;;2;1.5;;;;;;;3.83;85.73242;943.6019;;;;
2021/10/25 01:36:27;;;;;;;3.5;1.6;;;;;;;3.79;85.75879;943.6167;;;;
2021/10/25 01:38:52;;;;;;;2.3;1.5;;;;;;;3.66;86.26953;943.5092;;;;
2021/10/25 01:45:09;;;;;;;3;1.5;;;;;;;3.47;87.12891;943.5823;;;;
2021/10/25 01:47:33;;;;;;;1.7;1.3;;;;;;;3.56;87.10449;943.4786;;;;
2021/10/25 01:49:58;;;;;;;1.9;1.4;;;;;;;3.6;86.61914;943.4504;;;;
2021/10/25 01:52:23;;;;;;;2.6;1.6;;;;;;;3.81;86.06641;943.4099;;;;
2021/10/25 01:54:51;;;;;;;2.3;1.5;;;;;;;3.94;85.24805;943.4067;;;;
2021/10/25 01:57:16;;;;;;;2.3;1.4;;;;;;;4.08;84.64746;943.3309;;;;
2021/10/25 01:59:42;;;;;;;1.4;1.2;;;;;;;4.09;84.27637;943.3508;;;;
2021/10/25 02:02:07;;;;;;;3.1;1.8;;;;;;;4.06;84.02344;943.4081;;;;
2021/10/25 02:07:28;;;;;;;3.7;1.5;;;;;;;3.69;85.76855;943.323;;;;
2021/10/25 02:09:53;;;;;;;2.7;1.6;;;;;;;3.66;86.33691;943.2367;;;;
2021/10/25 02:15:56;;;;;;;2.8;1.7;;;;;;;3.76;86.29102;943.2181;;;;
2021/10/25 02:18:22;;;;;;;2.5;1.6;;;;;;;3.89;85.62109;943.2943;;;;
2021/10/25 02:20:47;;;;;;;3.8;1.9;;;;;;;3.84;85.77734;943.2022;;;;
2021/10/25 02:23:12;;;;;;;1.8;1.5;;;;;;;3.81;85.7627;943.2759;;;;
2021/10/25 02:25:37;;;;;;;2.3;1.5;;;;;;;3.85;85.65527;943.2191;;;;
2021/10/25 02:28:31;;;;;;;2;1.5;;;;;;;3.93;85.20117;943.2667;;;;
2021/10/25 02:30:57;;;;;;;3.7;1.8;;;;;;;3.91;84.95996;943.3318;;;;
2021/10/25 02:33:22;;;;;;;1.9;1.4;;;;;;;3.88;85.125;943.2946;;;;
2021/10/25 02:35:51;;;;;;;2.1;1.7;;;;;;;3.85;85.2168;943.293;;;;
2021/10/25 02:38:17;;;;;;;2.3;1.7;;;;;;;3.77;85.66504;943.2472;;;;
2021/10/25 02:40:41;;;;;;;1.9;1.7;;;;;;;3.74;86.10742;943.1757;;;;
2021/10/25 02:43:07;;;;;;;2;1.4;;;;;;;3.75;85.91797;943.1462;;;;
2021/10/25 02:45:31;;;;;;;1.9;1.4;;;;;;;3.78;85.66504;943.231;;;;
2021/10/25 02:47:57;;;;;;;1.6;1.4;;;;;;;3.71;86.25781;943.1978;;;;
2021/10/25 02:50:22;;;;;;;3.3;1.6;;;;;;;3.7;86.33594;943.163;;;;
2021/10/25 02:52:47;;;;;;;4;1.7;;;;;;;3.73;85.94824;943.1233;;;;
2021/10/25 02:55:12;;;;;;;2.5;1.1;;;;;;;3.63;86.49023;943.1239;;;;
2021/10/25 02:57:37;;;;;;;1.9;1.6;;;;;;;3.72;86.03516;943.1235;;;;
2021/10/25 03:00:04;;;;;;;1.9;1.4;;;;;;;3.8;85.48926;943.1395;;;;
2021/10/25 03:02:28;;;;;;;2.6;1.4;;;;;;;3.87;85.02051;943.1013;;;;
2021/10/25 03:04:53;;;;;;;4.1;1.8;;;;;;;3.96;84.82422;943.1096;;;;
2021/10/25 03:07:18;;;;;;;3.6;2;;;;;;;4.01;84.6084;943.0566;;;;
2021/10/25 03:09:43;;;;;;;3.8;3.4;;;;;;;4.01;84.2168;943.0899;;;;
2021/10/25 03:12:08;;;;;;;3.6;1.9;;;;;;;3.85;85.27344;943.0772;;;;
2021/10/25 03:14:33;;;;;;;5.5;3;;;;;;;3.97;85.07422;943.1636;;;;
2021/10/25 03:16:58;;;;;;;5.7;2.6;;;;;;;4.1;84.66211;943.2001;;;;
2021/10/25 03:19:23;;;;;;;4.3;2.2;;;;;;;4.18;84.05957;943.1671;;;;
2021/10/25 03:21:49;;;;;;;2.7;1.8;;;;;;;3.93;84.96582;943.1984;;;;
2021/10/25 03:24:14;;;;;;;2.5;1.6;;;;;;;4.01;84.79004;943.2403;;;;
2021/10/25 03:26:39;;;;;;;2.7;1.8;;;;;;;4.09;84.58008;943.2034;;;;
2021/10/25 03:29:04;;;;;;;1.9;1.5;;;;;;;4.13;84.32031;943.1873;;;;
2021/10/25 03:31:30;;;;;;;3.6;1.5;;;;;;;4.27;83.67285;943.1989;;;;
2021/10/25 03:33:55;;;;;;;4.3;2;;;;;;;4.19;84.00488;943.1351;;;;
2021/10/25 03:36:26;;;;;;;2.8;1.9;;;;;;;4.24;83.94629;943.2039;;;;
2021/10/25 03:38:48;;;;;;;2.4;1.9;;;;;;;4.15;84.08594;943.2494;;;;
2021/10/25 03:41:19;;;;;;;2.7;2;;;;;;;4.24;83.80078;943.1722;;;;
2021/10/25 03:43:46;;;;;;;2.3;1.8;;;;;;;;;;;;;
2021/10/25 03:46:11;;;;;;;1.7;1.6;;;;;;;;;;;;;
2021/10/25 03:48:36;;;;;;;4.4;1.7;;;;;;;;;;;;;
2021/10/25 03:50:56;;;;;;;2.9;1.6;;;;;;;;;;;;;
2021/10/25 03:53:29;;;;;;;2.2;1.5;;;;;;;;;;;;;
2021/10/25 03:55:53;;;;;;;2.1;1.7;;;;;;;;;;;;;
2021/10/25 04:27:16;;;;;;;5.9;2.7;;;;;;;4.21;85.07715;942.9612;;;;
2021/10/25 04:29:29;;;;;;;7.6;2.8;;;;;;;4.25;84.65723;943.0181;;;;
2021/10/25 04:31:51;;;;;;;6.2;2.5;;;;;;;4.24;84.75684;942.9941;;;;
2021/10/25 04:34:16;;;;;;;5.5;2;;;;;;;4.27;84.36816;942.9913;;;;
2021/10/25 04:36:41;;;;;;;5.3;2;;;;;;;3.98;85.58301;942.9317;;;;
2021/10/25 04:39:09;;;;;;;1.9;1.6;;;;;;;4.02;85.38672;942.9405;;;;
2021/10/25 04:41:32;;;;;;;2.7;1.3;;;;;;;4.02;85.48926;942.928;;;;
2021/10/25 04:43:57;;;;;;;2.7;1.5;;;;;;;3.94;85.86719;942.9498;;;;
2021/10/25 04:46:22;;;;;;;2.7;1.8;;;;;;;3.98;85.61719;942.9405;;;;
2021/10/25 04:48:48;;;;;;;3.5;1.5;;;;;;;4.15;84.8291;942.9508;;;;
2021/10/25 04:51:13;;;;;;;2.2;1.3;;;;;;;4.14;84.55664;942.9425;;;;
2021/10/25 04:53:40;;;;;;;4.3;1.4;;;;;;;4.08;84.78027;942.9114;;;;
2021/10/25 04:56:05;;;;;;;4.8;2;;;;;;;3.94;85.34766;942.8976;;;;
2021/10/25 04:58:31;;;;;;;3.2;1.7;;;;;;;3.92;85.79395;942.8684;;;;
2021/10/25 05:00:56;;;;;;;2.5;1.7;;;;;;;3.89;85.75488;942.8788;;;;
2021/10/25 05:03:22;;;;;;;2.9;1.4;;;;;;;3.86;86.12012;942.8132;;;;
2021/10/25 05:05:49;;;;;;;3.1;1.7;;;;;;;3.89;86.17285;942.872;;;;
2021/10/25 05:08:14;;;;;;;3.5;1.6;;;;;;;3.9;85.73535;942.8511;;;;
2021/10/25 05:10:39;;;;;;;2.3;1.7;;;;;;;3.9;85.63477;942.8117;;;;
2021/10/25 05:13:05;;;;;;;2.7;1.8;;;;;;;4.05;85.20215;942.8024;;;;
2021/10/25 05:15:32;;;;;;;3;2.2;;;;;;;4.08;84.77148;942.8259;;;;
2021/10/25 05:17:55;;;;;;;5;3.7;;;;;;;4.09;84.90625;942.793;;;;
2021/10/25 05:20:21;;;;;;;5.2;3;;;;;;;4.03;85.08691;942.6676;;;;
2021/10/25 05:22:46;;;;;;;6;3.1;;;;;;;4.02;85.39941;942.676;;;;
2021/10/25 05:25:12;;;;;;;4.1;2.1;;;;;;;4.05;85.23438;942.7242;;;;
2021/10/25 05:27:38;;;;;;;2.7;1.7;;;;;;;4.02;85.15039;942.6592;;;;
2021/10/25 05:30:03;;;;;;;3.7;1.8;;;;;;;4.08;85.00586;942.6561;;;;
2021/10/25 05:32:30;;;;;;;2.5;2.3;;;;;;;3.96;85.37598;942.6119;;;;
2021/10/25 05:34:56;;;;;;;5.1;2;;;;;;;3.95;85.40723;942.5151;;;;
2021/10/25 05:37:22;;;;;;;7.2;2.7;;;;;;;4.1;86.14551;942.5639;;;;
2021/10/25 05:39:47;;;;;;;4.2;2.8;;;;;;;4.21;85.07715;942.6895;;;;
2021/10/25 05:42:13;;;;;;;9.5;3.2;;;;;;;4.32;84.54785;942.6685;;;;
2021/10/25 05:44:38;;;;;;;5.7;2.7;;;;;;;4.43;83.73828;942.604;;;;
2021/10/25 05:47:03;;;;;;;5.1;2.9;;;;;;;4.46;83.42773;942.6208;;;;
2021/10/25 05:49:29;;;;;;;9.1;2.9;;;;;;;4.5;83.00586;942.6451;;;;
2021/10/25 05:51:56;;;;;;;5.6;3.4;;;;;;;4.53;82.79883;942.685;;;;
2021/10/25 05:54:21;;;;;;;6.5;3.7;;;;;;;4.54;82.47559;942.6365;;;;
2021/10/25 05:56:48;;;;;;;6.3;3.1;;;;;;;4.46;82.70801;942.6548;;;;
2021/10/25 06:01:41;;;;;;;7.5;3.5;;;;;;;4.29;83.78809;942.7534;;;;
2021/10/25 06:04:04;;;;;;;6.7;3.8;;;;;;;;;;;;;
2021/10/25 06:06:27;;;;;;;9.3;4;;;;;;;;;;;;;
2021/10/25 06:08:52;;;;;;;7.7;3.5;;;;;;;;;;;;;
2021/10/25 06:11:17;;;;;;;7.7;4.2;;;;;;;;;;;;;
2021/10/25 06:13:44;;;;;;;9;3.5;;;;;;;;;;;;;
2021/10/25 06:16:12;;;;;;;10.4;4.3;;;;;;;;;;;;;
2021/10/25 06:18:33;;;;;;;19.1;8.8;;;;;;;;;;;;;
2021/10/25 06:20:59;;;;;;;8.8;4.8;;;;;;;;;;;;;
2021/10/25 06:23:24;;;;;;;7.1;4.1;;;;;;;;;;;;;
2021/10/25 06:25:52;;;;;;;12.7;4.8;;;;;;;;;;;;;
2021/10/25 06:28:15;;;;;;;11.5;4;;;;;;;;;;;;;
2021/10/25 06:30:40;;;;;;;9.3;4.2;;;;;;;;;;;;;
2021/10/25 06:33:07;;;;;;;6.1;2.9;;;;;;;;;;;;;
2021/10/25 06:35:39;;;;;;;8;3.1;;;;;;;;;;;;;
2021/10/25 06:38:09;;;;;;;3.7;2.5;;;;;;;;;;;;;
2021/10/25 06:40:28;;;;;;;5.8;2.9;;;;;;;;;;;;;
2021/10/25 06:42:54;;;;;;;4.8;2.6;;;;;;;;;;;;;
2021/10/25 06:45:20;;;;;;;3.6;2.4;;;;;;;;;;;;;
2021/10/25 06:47:58;;;;;;;7.6;2.5;;;;;;;;;;;;;
2021/10/25 06:50:24;;;;;;;5.1;2.2;;;;;;;;;;;;;
2021/10/25 06:52:50;;;;;;;5.2;2.1;;;;;;;;;;;;;
2021/10/25 06:55:18;;;;;;;3.8;2.1;;;;;;;;;;;;;
2021/10/25 06:57:43;;;;;;;7.5;3.7;;;;;;;;;;;;;
2021/10/25 07:00:08;;;;;;;9.7;4.3;;;;;;;;;;;;;
2021/10/25 07:02:35;;;;;;;10.3;4.2;;;;;;;;;;;;;
2021/10/25 07:05:00;;;;;;;9.3;4.2;;;;;;;;;;;;;
2021/10/25 07:07:27;;;;;;;9;4.3;;;;;;;;;;;;;
2021/10/25 07:09:51;;;;;;;8.6;4.7;;;;;;;;;;;;;
2021/10/25 07:12:15;;;;;;;12.9;5.2;;;;;;;;;;;;;
2021/10/25 07:14:41;;;;;;;9.8;4.6;;;;;;;;;;;;;
2021/10/25 07:17:15;;;;;;;8.3;4.9;;;;;;;;;;;;;
2021/10/25 07:19:44;;;;;;;11.7;4.4;;;;;;;;;;;;;
2021/10/25 07:22:29;;;;;;;8.1;4.1;;;;;;;;;;;;;
2021/10/25 08:01:13;;;;;;;7.9;3.1;;;;;;;;;;;;;
2021/10/25 08:05:41;;;;;;;5.6;2.4;;;;;;;;;;;;;
2021/10/25 08:08:07;;;;;;;8;3.3;;;;;;;;;;;;;
2021/10/25 08:10:25;;;;;;;9;3.7;;;;;;;;;;;;;
2021/10/25 08:12:53;;;;;;;12;3.5;;;;;;;;;;;;;
2021/10/25 08:15:20;;;;;;;5.1;2.4;;;;;;;;;;;;;
2021/10/25 08:17:45;;;;;;;6.9;2.5;;;;;;;;;;;;;
2021/10/25 08:20:05;;;;;;;7.6;2.4;;;;;;;;;;;;;
2021/10/25 08:22:30;;;;;;;5.9;2.7;;;;;;;;;;;;;
2021/10/25 08:24:55;;;;;;;7.8;3.2;;;;;;;;;;;;;
2021/10/25 08:27:21;;;;;;;8.7;3.2;;;;;;;;;;;;;
2021/10/25 08:29:47;;;;;;;5.3;2.9;;;;;;;;;;;;;
2021/10/25 08:32:20;;;;;;;9.1;3.5;;;;;;;;;;;;;
2021/10/25 08:34:43;;;;;;;8.6;3.4;;;;;;;;;;;;;
2021/10/25 08:41:52;;;;;;;11.1;4.5;;;;;;;;;;;;;
2021/10/25 08:44:17;;;;;;;10.2;3.8;;;;;;;;;;;;;
2021/10/25 08:46:43;;;;;;;9;3.7;;;;;;;;;;;;;
2021/10/25 08:49:08;;;;;;;9.3;3.4;;;;;;;;;;;;;
2021/10/25 08:51:33;;;;;;;7.4;3;;;;;;;;;;;;;
2021/10/25 08:53:58;;;;;;;11.1;3.4;;;;;;;;;;;;;
2021/10/25 08:56:23;;;;;;;10.5;3.7;;;;;;;;;;;;;
2021/10/25 08:58:49;;;;;;;10.3;4.2;;;;;;;;;;;;;
2021/10/25 09:01:16;;;;;;;10.1;4.1;;;;;;;;;;;;;
2021/10/25 09:03:41;;;;;;;11.9;3.9;;;;;;;;;;;;;
2021/10/25 09:06:06;;;;;;;10.1;3.8;;;;;;;;;;;;;
2021/10/25 09:08:33;;;;;;;6.4;2.7;;;;;;;;;;;;;
2021/10/25 09:10:57;;;;;;;10.8;3.6;;;;;;;;;;;;;
2021/10/25 09:13:22;;;;;;;6.2;2.7;;;;;;;;;;;;;
2021/10/25 09:15:49;;;;;;;3.9;2.4;;;;;;;;;;;;;
2021/10/25 09:18:13;;;;;;;6.1;2.6;;;;;;;;;;;;;
2021/10/25 09:20:38;;;;;;;5.2;2.5;;;;;;;;;;;;;
2021/10/25 09:23:03;;;;;;;5.4;2.6;;;;;;;;;;;;;
2021/10/25 09:25:29;;;;;;;4.7;2.5;;;;;;;;;;;;;
2021/10/25 09:27:54;;;;;;;4.7;2.5;;;;;;;;;;;;;
2021/10/25 09:30:21;;;;;;;5.5;3;;;;;;;;;;;;;
2021/10/25 09:32:45;;;;;;;3.9;2.7;;;;;;;;;;;;;
2021/10/25 09:35:21;;;;;;;4.5;2.4;;;;;;;;;;;;;
2021/10/25 09:37:44;;;;;;;5.7;2.9;;;;;;;;;;;;;
2021/10/25 09:40:08;;;;;;;5.9;2.9;;;;;;;;;;;;;
2021/10/25 09:45:22;;;;;;;4.9;2.8;;;;;;;;;;;;;
2021/10/25 09:49:44;;;;;;;3.8;2.2;;;;;;;;;;;;;
2021/10/25 09:52:08;;;;;;;4.6;2.8;;;;;;;;;;;;;
2021/10/25 09:54:34;;;;;;;5.4;3;;;;;;;;;;;;;
2021/10/25 09:57:06;;;;;;;11.7;3.6;;;;;;;;;;;;;
2021/10/25 09:59:33;;;;;;;4.9;2.6;;;;;;;;;;;;;
2021/10/25 10:01:49;;;;;;;4.6;2.3;;;;;;;;;;;;;
2021/10/25 10:04:15;;;;;;;2.6;1.8;;;;;;;;;;;;;
2021/10/25 10:06:40;;;;;;;4.4;1.4;;;;;;;;;;;;;
2021/10/25 10:09:05;;;;;;;3.4;1.6;;;;;;;;;;;;;
2021/10/25 10:11:30;;;;;;;3;1.5;;;;;;;;;;;;;
2021/10/25 10:13:56;;;;;;;5.5;2.1;;;;;;;;;;;;;
2021/10/25 10:16:20;;;;;;;3.3;1.9;;;;;;;;;;;;;
2021/10/25 10:18:46;;;;;;;5.5;2.3;;;;;;;;;;;;;
2021/10/25 10:21:11;;;;;;;3.8;2.1;;;;;;;;;;;;;
2021/10/25 10:23:36;;;;;;;3.1;1.7;;;;;;;;;;;;;
2021/10/25 10:26:05;;;;;;;4.1;2;;;;;;;;;;;;;
2021/10/25 10:28:30;;;;;;;3.1;2;;;;;;;;;;;;;
2021/10/25 10:30:55;;;;;;;4.6;2.2;;;;;;;;;;;;;
2021/10/25 10:33:20;;;;;;;6.9;2.6;;;;;;;;;;;;;
2021/10/25 10:35:46;;;;;;;4.2;2.1;;;;;;;;;;;;;
2021/10/25 10:38:11;;;;;;;5.9;2.4;;;;;;;;;;;;;
2021/10/25 10:40:36;;;;;;;5;2.9;;;;;;;;;;;;;
2021/10/25 10:43:01;;;;;;;5.5;3;;;;;;;;;;;;;
2021/10/25 10:45:26;;;;;;;7.2;3;;;;;;;;;;;;;
2021/10/25 10:47:53;;;;;;;3.9;2.4;;;;;;;;;;;;;
2021/10/25 10:50:16;;;;;;;3.9;2;;;;;;;;;;;;;
2021/10/25 10:52:45;;;;;;;2.9;1.9;;;;;;;;;;;;;
2021/10/25 10:55:09;;;;;;;3.4;2;;;;;;;;;;;;;
2021/10/25 10:57:58;;;;;;;2.6;1.5;;;;;;;;;;;;;
2021/10/25 10:59:59;;;;;;;2.9;1.6;;;;;;;;;;;;;
2021/10/25 11:02:24;;;;;;;4.1;2;;;;;;;;;;;;;
2021/10/25 11:04:49;;;;;;;2.2;1.6;;;;;;;;;;;;;
2021/10/25 11:07:14;;;;;;;1.8;1.6;;;;;;;;;;;;;
2021/10/25 11:09:40;;;;;;;7.5;2.8;;;;;;;;;;;;;
2021/10/25 11:12:05;;;;;;;4.5;1.8;;;;;;;;;;;;;
2021/10/25 11:14:29;;;;;;;3.1;2;;;;;;;;;;;;;
2021/10/25 11:17:06;;;;;;;3.6;2.5;;;;;;;;;;;;;
2021/10/25 11:19:19;;;;;;;6.6;2.3;;;;;;;;;;;;;
2021/10/25 11:21:51;;;;;;;7.5;2.4;;;;;;;;;;;;;
2021/10/25 11:24:12;;;;;;;10.8;3;;;;;;;;;;;;;
2021/10/25 11:26:36;;;;;;;3.9;2.4;;;;;;;;;;;;;
2021/10/25 11:29:02;;;;;;;8.5;3.3;;;;;;;;;;;;;
2021/10/25 11:31:26;;;;;;;12.1;6.3;;;;;;;;;;;;;
2021/10/25 11:33:52;;;;;;;5.7;4;;;;;;;;;;;;;
2021/10/25 11:36:19;;;;;;;5.3;3.6;;;;;;;;;;;;;
2021/10/25 11:38:42;;;;;;;3.2;2.2;;;;;;;;;;;;;
2021/10/25 11:41:08;;;;;;;2.5;1.5;;;;;;;;;;;;;
2021/10/25 11:43:32;;;;;;;4.2;2.2;;;;;;;;;;;;;
2021/10/25 11:45:58;;;;;;;4.4;2.3;;;;;;;;;;;;;
2021/10/25 11:48:23;;;;;;;3.5;2.2;;;;;;;;;;;;;
2021/10/25 11:50:49;;;;;;;6.4;2.7;;;;;;;;;;;;;
2021/10/25 11:53:14;;;;;;;7.9;2.7;;;;;;;;;;;;;
2021/10/25 11:55:39;;;;;;;3.1;2.1;;;;;;;;;;;;;
2021/10/25 11:58:04;;;;;;;6;2.4;;;;;;;;;;;;;
2021/10/25 12:00:29;;;;;;;5.4;2.4;;;;;;;;;;;;;
2021/10/25 12:02:54;;;;;;;6.2;2.5;;;;;;;;;;;;;
2021/10/25 12:05:20;;;;;;;5.7;2.7;;;;;;;;;;;;;
2021/10/25 12:07:45;;;;;;;6.3;2.8;;;;;;;;;;;;;
2021/10/25 12:10:10;;;;;;;6.4;2.4;;;;;;;;;;;;;
2021/10/25 12:12:35;;;;;;;4.9;2.4;;;;;;;;;;;;;
2021/10/25 12:15:02;;;;;;;4;2.7;;;;;;;;;;;;;
2021/10/25 12:17:25;;;;;;;7.9;3.1;;;;;;;;;;;;;
2021/10/25 12:19:51;;;;;;;10;3.2;;;;;;;;;;;;;
2021/10/25 12:22:16;;;;;;;4.8;2.7;;;;;;;;;;;;;
2021/10/25 12:24:41;;;;;;;7.4;2.9;;;;;;;;;;;;;
2021/10/25 12:27:08;;;;;;;4.8;2.4;;;;;;;;;;;;;
2021/10/25 12:29:31;;;;;;;6.2;2.9;;;;;;;;;;;;;
2021/10/25 12:31:56;;;;;;;6;2.8;;;;;;;;;;;;;
2021/10/25 12:34:21;;;;;;;10;2.9;;;;;;;;;;;;;
2021/10/25 12:36:47;;;;;;;5.6;3.1;;;;;;;;;;;;;
2021/10/25 12:39:12;;;;;;;5.4;2.7;;;;;;;;;;;;;
2021/10/25 12:41:37;;;;;;;5.3;2.8;;;;;;;;;;;;;
2021/10/25 12:44:02;;;;;;;5.4;2.6;;;;;;;;;;;;;
2021/10/25 12:46:29;;;;;;;6;2.6;;;;;;;;;;;;;
2021/10/25 12:48:53;;;;;;;5.5;2.7;;;;;;;;;;;;;
2021/10/25 12:51:19;;;;;;;5.9;2.7;;;;;;;;;;;;;
2021/10/25 12:53:44;;;;;;;5.4;2.8;;;;;;;;;;;;;
2021/10/25 12:56:08;;;;;;;6.2;2.6;;;;;;;;;;;;;
2021/10/25 12:58:33;;;;;;;6.5;2.1;;;;;;;;;;;;;
2021/10/25 13:01:00;;;;;;;5.4;2;;;;;;;;;;;;;
2021/10/25 13:03:25;;;;;;;5.6;1.9;;;;;;;;;;;;;
2021/10/25 13:05:52;;;;;;;4.9;1.9;;;;;;;;;;;;;
2021/10/25 13:08:15;;;;;;;2.5;1.5;;;;;;;;;;;;;
2021/10/25 13:10:41;;;;;;;3.8;2;;;;;;;;;;;;;
2021/10/25 13:13:06;;;;;;;3.1;1.9;;;;;;;;;;;;;
2021/10/25 13:15:31;;;;;;;3.7;1.6;;;;;;;;;;;;;
2021/10/25 13:17:56;;;;;;;6.9;2.3;;;;;;;;;;;;;
2021/10/25 13:20:22;;;;;;;4.4;2.4;;;;;;;;;;;;;
2021/10/25 13:22:47;;;;;;;7.9;2.6;;;;;;;;;;;;;
2021/10/25 13:25:12;;;;;;;7.3;2.8;;;;;;;;;;;;;
2021/10/25 13:27:37;;;;;;;8.7;3.2;;;;;;;;;;;;;
2021/10/25 13:30:03;;;;;;;8.9;2.8;;;;;;;;;;;;;
2021/10/25 13:32:27;;;;;;;4.3;2.7;;;;;;;;;;;;;
2021/10/25 13:34:53;;;;;;;4.8;2.7;;;;;;;;;;;;;
2021/10/25 13:37:18;;;;;;;11;3.4;;;;;;;;;;;;;
2021/10/25 13:39:43;;;;;;;9.2;4.2;;;;;;;;;;;;;
2021/10/25 13:42:10;;;;;;;6.9;4;;;;;;;;;;;;;
2021/10/25 13:44:34;;;;;;;7.5;3.9;;;;;;;;;;;;;
2021/10/25 13:47:00;;;;;;;6.7;4.2;;;;;;;;;;;;;
2021/10/25 13:49:25;;;;;;;7;4.1;;;;;;;;;;;;;
2021/10/25 13:51:50;;;;;;;9.5;4.1;;;;;;;;;;;;;
2021/10/25 13:54:15;;;;;;;7.4;3.6;;;;;;;;;;;;;
2021/10/25 13:56:40;;;;;;;7.5;4.1;;;;;;;;;;;;;
2021/10/25 13:59:06;;;;;;;8;4.4;;;;;;;;;;;;;
2021/10/25 14:01:31;;;;;;;6.7;3.6;;;;;;;;;;;;;
2021/10/25 14:03:55;;;;;;;8;3.6;;;;;;;;;;;;;
2021/10/25 14:06:22;;;;;;;6;3.3;;;;;;;;;;;;;
2021/10/25 14:08:48;;;;;;;6.5;3;;;;;;;;;;;;;
2021/10/25 14:11:12;;;;;;;7.3;3;;;;;;;;;;;;;
2021/10/25 14:13:43;;;;;;;6.2;2.8;;;;;;;;;;;;;
2021/10/25 14:16:20;;;;;;;4;2.4;;;;;;;;;;;;;
2021/10/25 14:18:27;;;;;;;5.2;2.2;;;;;;;;;;;;;
2021/10/25 14:20:52;;;;;;;4.1;2.2;;;;;;;;;;;;;
2021/10/25 14:23:18;;;;;;;5.7;2.4;;;;;;;;;;;;;
2021/10/25 14:25:43;;;;;;;8;2.5;;;;;;;;;;;;;
2021/10/25 14:28:10;;;;;;;5.6;2.3;;;;;;;;;;;;;
2021/10/25 14:30:35;;;;;;;5.2;2.7;;;;;;;;;;;;;
2021/10/25 14:33:01;;;;;;;3.7;2.1;;;;;;;;;;;;;
2021/10/25 14:35:27;;;;;;;4.4;2.1;;;;;;;;;;;;;
2021/10/25 14:37:51;;;;;;;8.7;2.9;;;;;;;;;;;;;
2021/10/25 14:40:22;;;;;;;5.4;2.5;;;;;;;;;;;;;
2021/10/25 14:42:50;;;;;;;8.4;3;;;;;;;;;;;;;
2021/10/25 14:45:15;;;;;;;6.4;2.6;;;;;;;;;;;;;
2021/10/25 14:47:50;;;;;;;5.6;2.7;;;;;;;;;;;;;
2021/10/25 14:54:50;;;;;;;4.3;3.1;;;;;;;;;;;;;
2021/10/25 14:57:13;;;;;;;5.8;2.8;;;;;;;;;;;;;
2021/10/25 14:59:37;;;;;;;4.8;2.7;;;;;;;;;;;;;
2021/10/25 15:02:02;;;;;;;8;3.9;;;;;;;;;;;;;
2021/10/25 15:04:27;;;;;;;8.1;4.2;;;;;;;;;;;;;
2021/10/25 15:06:52;;;;;;;4.4;2.5;;;;;;;;;;;;;
2021/10/25 15:09:17;;;;;;;3.9;2.4;;;;;;;;;;;;;
2021/10/25 15:11:43;;;;;;;5.4;2.9;;;;;;;;;;;;;
2021/10/25 15:14:23;;;;;;;7.6;3.2;;;;;;;;;;;;;
2021/10/25 15:16:33;;;;;;;9;2.9;;;;;;;;;;;;;
2021/10/25 15:18:58;;;;;;;7.4;3;;;;;;;;;;;;;
2021/10/25 15:21:23;;;;;;;5.7;3;;;;;;;;;;;;;
2021/10/25 15:23:49;;;;;;;6.1;3.2;;;;;;;;;;;;;
2021/10/25 15:26:14;;;;;;;7;3.5;;;;;;;;;;;;;
2021/10/25 15:28:40;;;;;;;6.2;3.5;;;;;;;;;;;;;
2021/10/25 15:31:05;;;;;;;7.7;3.7;;;;;;;;;;;;;
2021/10/25 15:33:31;;;;;;;11.2;3.8;;;;;;;;;;;;;
2021/10/25 15:35:58;;;;;;;7.4;2.9;;;;;;;;;;;;;
2021/10/25 15:38:22;;;;;;;8.2;2.6;;;;;;;;;;;;;
2021/10/25 15:40:46;;;;;;;8.3;2.6;;;;;;;;;;;;;
2021/10/25 15:43:11;;;;;;;6.5;2.7;;;;;;;;;;;;;
2021/10/25 15:45:37;;;;;;;27;19.3;;;;;;;;;;;;;
2021/10/25 15:48:02;;;;;;;25.5;17.5;;;;;;;;;;;;;
2021/10/25 15:50:29;;;;;;;11.9;8.8;;;;;;;;;;;;;
2021/10/25 15:52:53;;;;;;;16.2;8.3;;;;;;;;;;;;;
2021/10/25 15:55:18;;;;;;;10.7;3.9;;;;;;;;;;;;;
2021/10/25 15:57:44;;;;;;;11.2;5.9;;;;;;;;;;;;;
2021/10/25 16:00:09;;;;;;;7.6;4.3;;;;;;;;;;;;;
2021/10/25 16:02:34;;;;;;;9.5;4.7;;;;;;;;;;;;;
2021/10/25 16:04:59;;;;;;;11;4.7;;;;;;;;;;;;;
2021/10/25 16:07:24;;;;;;;11.5;3.3;;;;;;;;;;;;;
2021/10/25 16:09:49;;;;;;;7.8;3.2;;;;;;;;;;;;;
2021/10/25 16:12:17;;;;;;;8.9;2.9;;;;;;;;;;;;;
2021/10/25 16:14:39;;;;;;;8.3;3;;;;;;;;;;;;;
2021/10/25 16:17:09;;;;;;;11.3;3.9;;;;;;;;;;;;;
2021/10/25 16:19:31;;;;;;;16.5;4.8;;;;;;;;;;;;;
2021/10/25 16:21:58;;;;;;;11.2;5.6;;;;;;;;;;;;;
2021/10/25 16:24:21;;;;;;;10;4.2;;;;;;;;;;;;;
2021/10/25 16:26:47;;;;;;;12;4.1;;;;;;;;;;;;;
2021/10/25 16:29:11;;;;;;;6.1;3.7;;;;;;;;;;;;;
2021/10/25 16:31:36;;;;;;;4;2.6;;;;;;;;;;;;;
2021/10/25 16:34:01;;;;;;;3.7;2.3;;;;;;;;;;;;;
2021/10/25 16:36:27;;;;;;;6.3;2.6;;;;;;;;;;;;;
2021/10/25 16:38:52;;;;;;;6.8;4.3;;;;;;;;;;;;;
2021/10/25 16:41:17;;;;;;;24.5;9.8;;;;;;;;;;;;;
2021/10/25 16:43:42;;;;;;;16.5;8.5;;;;;;;;;;;;;
2021/10/25 16:46:08;;;;;;;15.4;8.9;;;;;;;;;;;;;
2021/10/25 16:48:36;;;;;;;19.6;10.1;;;;;;;;;;;;;
2021/10/25 16:51:02;;;;;;;27.8;14.1;;;;;;;;;;;;;
2021/10/25 16:53:34;;;;;;;17.3;6.3;;;;;;;;;;;;;
2021/10/25 16:55:56;;;;;;;22.4;7.8;;;;;;;;;;;;;
2021/10/25 17:03:19;;;;;;;13.1;6.1;;;;;;;;;;;;;
2021/10/25 17:05:39;;;;;;;10.9;4.9;;;;;;;;;;;;;
2021/10/25 17:10:19;;;;;;;18.6;9.9;;;;;;;;;;;;;
2021/10/25 17:12:44;;;;;;;33.1;7.6;;;;;;;;;;;;;
2021/10/25 17:15:12;;;;;;;19.1;6.7;;;;;;;;;;;;;
2021/10/25 17:17:34;;;;;;;18;7.6;;;;;;;;;;;;;
2021/10/25 17:23:01;;;;;;;17.7;7;;;;;;;;;;;;;
2021/10/25 17:25:25;;;;;;;11.2;5.7;;;;;;;;;;;;;
2021/10/25 17:27:50;;;;;;;11.2;5.8;;;;;;;;;;;;;
2021/10/25 17:30:16;;;;;;;8.1;4.4;;;;;;;;;;;;;
2021/10/25 17:32:41;;;;;;;10.6;5.9;;;;;;;;;;;;;
2021/10/25 17:35:08;;;;;;;19.2;11.6;;;;;;;;;;;;;
2021/10/25 17:37:34;;;;;;;9.6;6.9;;;;;;;;;;;;;
2021/10/25 17:39:58;;;;;;;10.1;6.4;;;;;;;;;;;;;
2021/10/25 17:42:24;;;;;;;11.1;6.9;;;;;;;;;;;;;
2021/10/25 17:44:49;;;;;;;11.5;6.4;;;;;;;;;;;;;
2021/10/25 17:47:14;;;;;;;11.6;7;;;;;;;;;;;;;
2021/10/25 17:49:39;;;;;;;10.5;6.4;;;;;;;;;;;;;
2021/10/25 17:52:05;;;;;;;9.7;6.6;;;;;;;;;;;;;
2021/10/25 17:54:33;;;;;;;13.2;7.5;;;;;;;;;;;;;
2021/10/25 17:56:56;;;;;;;10.2;6.9;;;;;;;;;;;;;
2021/10/25 17:59:21;;;;;;;9.9;6.9;;;;;;;;;;;;;
2021/10/25 18:01:46;;;;;;;11.5;9.4;;;;;;;;;;;;;
2021/10/25 18:04:11;;;;;;;13.3;11.9;;;;;;;;;;;;;
2021/10/25 18:06:36;;;;;;;8.8;7.4;;;;;;;;;;;;;
2021/10/25 18:09:01;;;;;;;8.2;5.3;;;;;;;;;;;;;
2021/10/25 18:11:29;;;;;;;6.6;5.3;;;;;;;;;;;;;
2021/10/25 18:13:51;;;;;;;7.3;5.6;;;;;;;;;;;;;
2021/10/25 18:16:16;;;;;;;11.4;7.4;;;;;;;;;;;;;
2021/10/25 18:18:42;;;;;;;14.1;8.9;;;;;;;;;;;;;
2021/10/25 18:21:07;;;;;;;13;8.2;;;;;;;;;;;;;
2021/10/25 18:23:32;;;;;;;17.2;10.3;;;;;;;;;;;;;
2021/10/25 18:25:58;;;;;;;16;8.8;;;;;;;;;;;;;
2021/10/25 18:28:22;;;;;;;14.7;8.8;;;;;;;;;;;;;
2021/10/25 18:30:48;;;;;;;10.4;6.7;;;;;;;;;;;;;
2021/10/25 18:33:12;;;;;;;15.4;8.1;;;;;;;;;;;;;
2021/10/25 18:35:38;;;;;;;13.1;8;;;;;;;;;;;;;
2021/10/25 18:38:03;;;;;;;16.1;10;;;;;;;;;;;;;
2021/10/25 18:40:29;;;;;;;21.5;13.2;;;;;;;;;;;;;
2021/10/25 18:42:55;;;;;;;33.6;22.6;;;;;;;;;;;;;
2021/10/25 18:45:19;;;;;;;12.9;7.9;;;;;;;;;;;;;
2021/10/25 18:47:46;;;;;;;18.7;10.2;;;;;;;;;;;;;
2021/10/25 18:50:08;;;;;;;15.5;8.7;;;;;;;;;;;;;
2021/10/25 18:52:34;;;;;;;14;7.1;;;;;;;;;;;;;
2021/10/25 18:54:59;;;;;;;8.4;4.2;;;;;;;;;;;;;
2021/10/25 18:57:24;;;;;;;9.7;5;;;;;;;;;;;;;
2021/10/25 18:59:49;;;;;;;7.7;4.1;;;;;;;;;;;;;
2021/10/25 19:02:14;;;;;;;12.2;6.6;;;;;;;;;;;;;
2021/10/25 19:04:40;;;;;;;8.4;4.5;;;;;;;;;;;;;
2021/10/25 19:07:05;;;;;;;16.5;7.7;;;;;;;;;;;;;
2021/10/25 19:09:31;;;;;;;18.7;10.6;;;;;;;;;;;;;
2021/10/25 19:11:56;;;;;;;11.7;6.3;;;;;;;;;;;;;
2021/10/25 19:14:23;;;;;;;21.8;10.6;;;;;;;;;;;;;
2021/10/25 19:16:47;;;;;;;5.9;4.2;;;;;;;;;;;;;
2021/10/25 19:19:13;;;;;;;6.8;4.5;;;;;;;;;;;;;
2021/10/25 19:21:38;;;;;;;8.4;4.5;;;;;;;;;;;;;
2021/10/25 19:24:03;;;;;;;9.4;5.9;;;;;;;;;;;;;
2021/10/25 19:26:29;;;;;;;8;5.4;;;;;;;;;;;;;
2021/10/25 19:28:54;;;;;;;10.7;6.1;;;;;;;;;;;;;
2021/10/25 19:31:19;;;;;;;13.4;7.9;;;;;;;;;;;;;
2021/10/25 19:33:44;;;;;;;11.8;6.8;;;;;;;;;;;;;
2021/10/25 19:36:12;;;;;;;11.9;7.3;;;;;;;;;;;;;
2021/10/25 19:38:36;;;;;;;11.4;6.8;;;;;;;;;;;;;
2021/10/25 19:41:02;;;;;;;14.2;8.5;;;;;;;;;;;;;
2021/10/25 19:43:27;;;;;;;12.2;8.5;;;;;;;;;;;;;
2021/10/25 19:45:52;;;;;;;12;7.4;;;;;;;;;;;;;
2021/10/25 19:48:17;;;;;;;12.9;7.7;;;;;;;;;;;;;
2021/10/25 19:50:42;;;;;;;11.3;7.1;;;;;;;;;;;;;
2021/10/25 19:53:07;;;;;;;10.5;7.2;;;;;;;;;;;;;
2021/10/25 19:55:33;;;;;;;12.1;6.7;;;;;;;;;;;;;
2021/10/25 19:57:58;;;;;;;23.4;15.4;;;;;;;;;;;;;
2021/10/25 20:00:23;;;;;;;14.1;8.3;;;;;;;;;;;;;
2021/10/25 20:02:48;;;;;;;10.8;6.5;;;;;;;;;;;;;
2021/10/25 20:05:13;;;;;;;10.6;6.3;;;;;;;;;;;;;